createdAt,value
2023-02-09T00:01:35.164Z,6.90
2023-02-09T00:04:02.699Z,6.30
2023-02-09T00:06:30.346Z,6.30
2023-02-09T00:08:58.622Z,5.80
2023-02-09T00:11:46.827Z,6.45
2023-02-09T00:14:15.290Z,7.10
2023-02-09T00:16:42.389Z,6.10
2023-02-09T00:19:09.534Z,6.40
2023-02-09T00:21:36.502Z,6.27
2023-02-09T00:24:03.364Z,6.53
2023-02-09T00:26:30.123Z,7.40
2023-02-09T00:28:56.989Z,6.43
2023-02-09T00:31:23.895Z,6.17
2023-02-09T00:33:50.732Z,6.40
2023-02-09T00:36:17.604Z,7.50
2023-02-09T00:38:45.065Z,6.87
2023-02-09T00:41:12.823Z,6.60
2023-02-09T00:43:40.217Z,6.45
2023-02-09T00:46:07.545Z,6.60
2023-02-09T00:48:34.434Z,6.10
2023-02-09T00:51:02.059Z,6.30
2023-02-09T00:53:29.716Z,5.53
2023-02-09T00:55:56.487Z,6.23
2023-02-09T00:58:23.135Z,6.03
2023-02-09T01:00:49.981Z,6.70
2023-02-09T01:03:16.801Z,6.17
2023-02-09T01:05:43.691Z,6.67
2023-02-09T01:08:10.553Z,6.77
2023-02-09T01:10:38.490Z,5.90
2023-02-09T01:13:05.836Z,6.87
2023-02-09T01:15:32.666Z,6.90
2023-02-09T01:17:59.760Z,6.93
2023-02-09T01:20:27.361Z,6.10
2023-02-09T01:22:54.226Z,7.10
2023-02-09T01:25:21.148Z,7.30
2023-02-09T01:27:47.850Z,6.37
2023-02-09T01:30:14.934Z,6.97
2023-02-09T01:32:41.668Z,6.95
2023-02-09T01:35:08.636Z,6.20
2023-02-09T01:37:36.156Z,6.20
2023-02-09T01:40:04.548Z,6.50
2023-02-09T01:42:31.347Z,6.77
2023-02-09T01:45:16.790Z,7.00
2023-02-09T01:47:49.958Z,6.70
2023-02-09T01:50:17.592Z,7.13
2023-02-09T01:52:46.339Z,6.90
2023-02-09T01:55:17.092Z,6.68
2023-02-09T01:57:59.070Z,6.80
2023-02-09T02:00:26.537Z,7.57
2023-02-09T02:02:57.706Z,7.87
2023-02-09T02:05:26.495Z,7.03
2023-02-09T02:07:58.217Z,8.07
2023-02-09T02:10:25.284Z,7.20
2023-02-09T02:12:54.367Z,7.53
2023-02-09T02:15:26.697Z,7.10
2023-02-09T02:18:14.015Z,7.10
2023-02-09T02:20:49.559Z,7.13
2023-02-09T02:23:37.855Z,7.90
2023-02-09T02:26:48.869Z,7.20
2023-02-09T02:29:36.739Z,7.90
2023-02-09T02:32:09.198Z,7.40
2023-02-09T02:34:35.811Z,8.40
2023-02-09T02:37:19.086Z,7.57
2023-02-09T02:40:10.272Z,7.97
2023-02-09T02:43:02.447Z,7.87
2023-02-09T02:46:05.648Z,6.50
2023-02-09T02:48:52.416Z,8.10
2023-02-09T02:51:31.708Z,7.30
2023-02-09T02:54:02.904Z,7.70
2023-02-09T02:56:36.361Z,7.10
2023-02-09T02:59:06.844Z,7.87
2023-02-09T03:01:57.232Z,8.00
2023-02-09T03:04:27.965Z,7.60
2023-02-09T03:06:54.648Z,7.90
2023-02-09T03:09:21.386Z,9.00
2023-02-09T03:11:51.401Z,7.47
2023-02-09T03:14:37.683Z,9.35
2023-02-09T03:17:10.186Z,8.48
2023-02-09T03:19:48.564Z,9.17
2023-02-09T03:22:18.427Z,8.10
2023-02-09T03:25:17.805Z,7.60
2023-02-09T03:28:04.706Z,8.03
2023-02-09T03:30:33.810Z,9.10
2023-02-09T03:33:02.267Z,8.33
2023-02-09T03:35:38.618Z,8.38
2023-02-09T03:38:06.668Z,8.20
2023-02-09T03:40:36.279Z,8.60
2023-02-09T03:43:02.959Z,7.90
2023-02-09T03:45:29.676Z,8.90
2023-02-09T03:47:56.353Z,8.70
2023-02-09T03:50:23.115Z,8.30
2023-02-09T03:52:50.750Z,8.30
2023-02-09T03:55:17.509Z,9.83
2023-02-09T03:57:44.340Z,9.00
2023-02-09T04:00:11.893Z,8.33
2023-02-09T04:02:38.910Z,9.63
2023-02-09T04:05:06.141Z,9.30
2023-02-09T04:07:33.290Z,8.57
2023-02-09T04:10:00.030Z,9.47
2023-02-09T04:12:26.760Z,8.30
2023-02-09T04:14:53.504Z,8.90
2023-02-09T04:17:20.184Z,8.83
2023-02-09T04:19:46.873Z,8.70
2023-02-09T04:22:13.591Z,8.70
2023-02-09T04:24:40.489Z,9.23
2023-02-09T04:27:07.131Z,9.30
2023-02-09T04:29:33.812Z,9.20
2023-02-09T04:32:00.711Z,9.07
2023-02-09T04:34:27.604Z,8.48
2023-02-09T04:36:54.370Z,8.70
2023-02-09T04:39:21.156Z,10.20
2023-02-09T04:41:47.940Z,9.00
2023-02-09T04:44:14.759Z,10.87
2023-02-09T04:46:41.652Z,9.33
2023-02-09T04:49:08.363Z,8.50
2023-02-09T04:51:35.106Z,9.60
2023-02-09T04:54:01.805Z,8.60
2023-02-09T04:56:28.545Z,9.70
2023-02-09T04:59:14.164Z,9.20
2023-02-09T05:01:40.894Z,8.93
2023-02-09T05:04:07.695Z,8.90
2023-02-09T05:06:34.412Z,8.13
2023-02-09T05:09:01.211Z,9.70
2023-02-09T05:11:27.913Z,9.30
2023-02-09T05:13:55.318Z,9.60
2023-02-09T05:16:22.183Z,9.57
2023-02-09T05:18:50.614Z,9.80
2023-02-09T05:21:17.344Z,9.40
2023-02-09T05:23:44.182Z,9.03
2023-02-09T05:26:10.854Z,9.07
2023-02-09T05:28:37.723Z,9.50
2023-02-09T05:31:04.559Z,9.53
2023-02-09T05:33:31.278Z,10.10
2023-02-09T05:35:58.029Z,9.93
2023-02-09T05:38:24.809Z,8.93
2023-02-09T05:40:51.708Z,8.73
2023-02-09T05:43:18.744Z,9.37
2023-02-09T05:45:46.215Z,10.48
2023-02-09T05:48:13.049Z,9.87
2023-02-09T05:50:39.815Z,10.23
2023-02-09T05:53:06.598Z,9.73
2023-02-09T05:55:33.358Z,10.10
2023-02-09T05:58:00.168Z,10.13
2023-02-09T06:00:29.657Z,9.60
2023-02-09T06:02:57.072Z,9.70
2023-02-09T06:05:24.181Z,10.20
2023-02-09T06:07:51.022Z,10.73
2023-02-09T06:10:18.768Z,11.20
2023-02-09T06:12:45.930Z,10.00
2023-02-09T06:15:13.539Z,9.50
2023-02-09T06:17:40.260Z,11.87
2023-02-09T06:20:07.381Z,10.00
2023-02-09T06:22:34.363Z,10.27
2023-02-09T06:25:01.131Z,10.47
2023-02-09T06:27:27.967Z,11.20
2023-02-09T06:29:54.692Z,9.23
2023-02-09T06:32:21.401Z,10.17
2023-02-09T06:34:48.152Z,9.70
2023-02-09T06:37:14.896Z,11.20
2023-02-09T06:39:41.600Z,12.13
2023-02-09T06:42:08.593Z,11.03
2023-02-09T06:44:35.330Z,11.37
2023-02-09T06:47:02.035Z,10.83
2023-02-09T06:49:28.751Z,11.13
2023-02-09T06:51:55.765Z,10.43
2023-02-09T06:54:22.852Z,11.70
2023-02-09T06:56:49.547Z,11.07
2023-02-09T06:59:16.311Z,10.10
2023-02-09T07:01:43.177Z,10.77
2023-02-09T07:04:10.016Z,11.40
2023-02-09T07:06:36.741Z,10.90
2023-02-09T07:09:03.812Z,11.63
2023-02-09T07:11:30.691Z,10.50
2023-02-09T07:13:57.566Z,11.20
2023-02-09T07:16:24.392Z,10.07
2023-02-09T07:18:51.330Z,11.40
2023-02-09T07:21:18.634Z,11.47
2023-02-09T07:23:45.871Z,12.20
2023-02-09T07:26:15.510Z,11.43
2023-02-09T07:28:42.585Z,12.33
2023-02-09T07:31:12.216Z,11.73
2023-02-09T07:33:39.206Z,11.10
2023-02-09T07:36:08.224Z,10.93
2023-02-09T07:38:35.484Z,12.52
2023-02-09T07:41:04.225Z,11.83
2023-02-09T07:43:31.852Z,12.60
2023-02-09T07:46:07.295Z,11.47
2023-02-09T07:48:35.149Z,10.87
2023-02-09T07:51:02.057Z,13.07
2023-02-09T07:53:29.628Z,11.20
2023-02-09T07:55:56.620Z,12.40
2023-02-09T07:58:23.567Z,12.03
2023-02-09T08:00:51.523Z,11.70
2023-02-09T08:03:20.823Z,12.20
2023-02-09T08:06:20.222Z,11.90
2023-02-09T08:08:49.481Z,12.60
2023-02-09T08:11:20.212Z,11.20
2023-02-09T08:13:47.787Z,12.97
2023-02-09T08:16:18.036Z,13.20
2023-02-09T08:18:50.796Z,12.27
2023-02-09T08:21:18.564Z,12.30
2023-02-09T08:23:48.527Z,12.40
2023-02-09T08:26:24.241Z,12.47
2023-02-09T08:28:53.179Z,12.90
2023-02-09T08:31:21.933Z,12.77
2023-02-09T08:33:50.075Z,12.80
2023-02-09T08:36:18.762Z,13.50
2023-02-09T08:38:45.949Z,14.00
2023-02-09T08:41:15.330Z,13.50
2023-02-09T08:43:42.125Z,12.57
2023-02-09T08:46:11.635Z,12.53
2023-02-09T08:48:42.926Z,12.80
2023-02-09T08:51:11.728Z,12.83
2023-02-09T08:53:38.816Z,12.50
2023-02-09T08:56:06.127Z,13.27
2023-02-09T08:58:33.498Z,11.97
2023-02-09T09:01:00.620Z,12.20
2023-02-09T09:03:31.491Z,13.20
2023-02-09T09:06:03.133Z,12.40
2023-02-09T09:08:31.465Z,12.70
2023-02-09T09:10:58.763Z,13.30
2023-02-09T09:13:26.161Z,12.73
2023-02-09T09:15:55.113Z,13.97
2023-02-09T09:18:22.971Z,14.23
2023-02-09T09:20:49.852Z,12.40
2023-02-09T09:23:16.653Z,13.83
2023-02-09T09:25:43.744Z,14.90
2023-02-09T09:28:11.135Z,14.83
2023-02-09T09:30:38.211Z,13.13
2023-02-09T09:33:05.124Z,13.60
2023-02-09T09:35:31.970Z,12.83
2023-02-09T09:37:59.151Z,13.60
2023-02-09T09:40:35.001Z,14.53
2023-02-09T09:43:13.374Z,13.80
2023-02-09T09:45:40.588Z,13.20
2023-02-09T09:48:26.470Z,14.10
2023-02-09T09:50:58.065Z,13.40
2023-02-09T09:53:25.250Z,13.60
2023-02-09T09:55:59.204Z,13.13
2023-02-09T09:58:27.823Z,13.73
2023-02-09T10:00:54.844Z,14.13
2023-02-09T10:03:23.467Z,15.43
2023-02-09T10:05:59.789Z,13.70
2023-02-09T10:08:53.052Z,12.60
2023-02-09T10:11:34.791Z,13.47
2023-02-09T10:14:01.533Z,16.00
2023-02-09T10:16:38.346Z,13.67
2023-02-09T10:19:17.194Z,14.13
2023-02-09T10:21:43.874Z,13.47
2023-02-09T10:24:14.383Z,13.00
2023-02-09T10:26:42.941Z,14.10
2023-02-09T10:29:12.530Z,13.37
2023-02-09T10:31:43.092Z,13.37
2023-02-09T10:34:42.939Z,13.10
2023-02-09T10:37:20.474Z,14.50
2023-02-09T10:40:00.240Z,13.67
2023-02-09T10:42:33.170Z,14.30
2023-02-09T10:45:42.060Z,14.47
2023-02-09T10:48:19.068Z,13.33
2023-02-09T10:50:56.518Z,14.23
2023-02-09T10:53:35.655Z,12.57
2023-02-09T10:56:17.954Z,12.73
2023-02-09T10:59:16.621Z,12.13
2023-02-09T11:01:50.460Z,12.43
2023-02-09T11:04:23.419Z,12.57
2023-02-09T11:06:56.379Z,12.87
2023-02-09T11:09:35.963Z,13.13
2023-02-09T11:12:03.216Z,13.40
2023-02-09T11:14:30.082Z,13.57
2023-02-09T11:17:36.613Z,12.17
2023-02-09T11:20:25.481Z,12.50
2023-02-09T11:23:22.639Z,13.33
2023-02-09T11:26:01.577Z,12.43
2023-02-09T11:28:47.312Z,13.37
2023-02-09T11:31:52.232Z,13.83
2023-02-09T11:34:34.230Z,11.97
2023-02-09T11:37:23.958Z,11.87
2023-02-09T11:39:57.462Z,12.17
2023-02-09T11:42:46.464Z,11.23
2023-02-09T11:45:35.598Z,12.47
2023-02-09T11:48:10.759Z,11.30
2023-02-09T11:50:56.007Z,11.80
2023-02-09T11:53:40.922Z,12.20
2023-02-09T11:56:19.882Z,12.17
2023-02-09T11:59:11.119Z,11.87
2023-02-09T12:01:47.716Z,13.17
2023-02-09T12:04:21.307Z,11.70
2023-02-09T12:06:56.767Z,11.37
2023-02-09T12:09:34.951Z,11.73
2023-02-09T12:12:08.032Z,13.07
2023-02-09T12:14:58.525Z,12.83
2023-02-09T12:17:51.082Z,13.40
2023-02-09T12:20:29.011Z,13.30
2023-02-09T12:23:22.107Z,12.10
2023-02-09T12:25:51.431Z,12.40
2023-02-09T12:28:40.113Z,11.60
2023-02-09T12:31:23.314Z,12.30
2023-02-09T12:33:55.965Z,10.90
2023-02-09T12:36:39.648Z,11.17
2023-02-09T12:39:26.628Z,11.80
2023-02-09T12:41:56.202Z,11.37
2023-02-09T12:44:22.904Z,11.27
2023-02-09T12:46:53.117Z,10.77
2023-02-09T12:49:29.180Z,10.80
2023-02-09T12:52:02.155Z,10.30
2023-02-09T12:54:34.321Z,11.20
2023-02-09T12:57:16.519Z,11.40
2023-02-09T13:00:03.471Z,10.23
2023-02-09T13:02:42.191Z,10.37
2023-02-09T13:05:26.937Z,10.10
2023-02-09T13:08:13.217Z,10.03
2023-02-09T13:11:06.126Z,10.20
2023-02-09T13:13:34.867Z,9.97
2023-02-09T13:16:04.243Z,10.43
2023-02-09T13:18:38.072Z,10.07
2023-02-09T13:21:29.680Z,11.10
2023-02-09T13:24:14.179Z,11.50
2023-02-09T13:26:57.907Z,11.70
2023-02-09T13:29:31.929Z,10.60
2023-02-09T13:32:16.728Z,11.23
2023-02-09T13:34:58.766Z,10.63
2023-02-09T13:37:42.906Z,10.20
2023-02-09T13:40:27.713Z,10.97
2023-02-09T13:43:06.867Z,12.10
2023-02-09T13:45:33.626Z,10.90
2023-02-09T13:48:01.777Z,12.17
2023-02-09T13:50:29.614Z,11.40
2023-02-09T13:53:09.812Z,10.30
2023-02-09T13:55:39.975Z,10.30
2023-02-09T13:58:12.832Z,10.23
2023-02-09T14:00:49.894Z,9.93
2023-02-09T14:03:27.293Z,10.20
2023-02-09T14:06:02.397Z,9.73
2023-02-09T14:08:31.652Z,9.87
2023-02-09T14:11:12.334Z,9.30
2023-02-09T14:13:45.348Z,10.60
2023-02-09T14:16:16.891Z,10.07
2023-02-09T14:19:22.680Z,10.37
2023-02-09T14:21:49.404Z,9.77
2023-02-09T14:24:24.844Z,10.80
2023-02-09T14:26:54.589Z,22.43
2023-02-09T14:29:23.594Z,12.03
2023-02-09T14:31:51.862Z,11.70
2023-02-09T14:34:37.830Z,12.87
2023-02-09T14:37:13.662Z,8.30
2023-02-09T14:40:04.582Z,10.23
2023-02-09T14:42:33.167Z,11.70
2023-02-09T14:45:02.344Z,12.00
2023-02-09T14:47:43.976Z,9.73
2023-02-09T14:50:14.486Z,10.60
2023-02-09T14:52:46.832Z,10.00
2023-02-09T14:55:16.852Z,9.47
2023-02-09T14:57:43.871Z,9.43
2023-02-09T15:00:30.457Z,9.07
2023-02-09T15:02:59.265Z,9.40
2023-02-09T15:05:28.450Z,9.03
2023-02-09T15:08:03.162Z,10.10
2023-02-09T15:10:53.790Z,9.50
2023-02-09T15:13:21.427Z,9.00
2023-02-09T15:15:48.948Z,9.50
2023-02-09T15:18:21.751Z,9.90
2023-02-09T15:20:48.712Z,9.90
2023-02-09T15:23:15.954Z,10.40
2023-02-09T15:25:43.487Z,9.20
2023-02-09T15:28:32.250Z,8.80
2023-02-09T15:30:59.788Z,8.70
2023-02-09T15:33:28.444Z,8.20
2023-02-09T15:35:58.981Z,8.30
2023-02-09T15:38:27.752Z,9.27
2023-02-09T15:41:13.523Z,8.80
2023-02-09T15:43:59.015Z,8.53
2023-02-09T15:46:44.345Z,8.50
2023-02-09T15:49:11.234Z,7.60
2023-02-09T15:51:39.740Z,9.17
2023-02-09T15:54:22.205Z,8.37
2023-02-09T15:56:48.927Z,8.00
2023-02-09T15:59:20.992Z,7.60
2023-02-09T16:01:48.474Z,7.70
2023-02-09T16:04:15.394Z,8.63
2023-02-09T16:06:50.548Z,8.30
2023-02-09T16:09:21.241Z,7.60
2023-02-09T16:11:48.570Z,8.30
2023-02-09T16:14:24.200Z,8.50
2023-02-09T16:16:51.495Z,7.50
2023-02-09T16:19:19.137Z,10.50
2023-02-09T16:21:52.926Z,8.30
2023-02-09T16:24:37.378Z,9.17
2023-02-09T16:27:25.218Z,7.50
2023-02-09T16:29:52.033Z,8.00
2023-02-09T16:32:22.101Z,8.17
2023-02-09T16:34:50.347Z,8.60
2023-02-09T16:37:31.227Z,8.00
2023-02-09T16:39:58.534Z,8.50
2023-02-09T16:42:25.670Z,7.60
2023-02-09T16:44:53.128Z,7.97
2023-02-09T16:47:28.051Z,8.33
2023-02-09T16:50:04.181Z,8.73
2023-02-09T16:52:31.281Z,8.27
2023-02-09T16:55:00.902Z,9.70
2023-02-09T16:57:28.670Z,8.60
2023-02-09T16:59:56.130Z,9.13
2023-02-09T17:02:28.613Z,9.00
2023-02-09T17:04:55.377Z,9.23
2023-02-09T17:07:30.078Z,8.27
2023-02-09T17:09:57.633Z,8.97
2023-02-09T17:12:24.425Z,9.20
2023-02-09T17:14:51.212Z,9.70
2023-02-09T17:17:20.479Z,9.23
2023-02-09T17:19:49.486Z,9.70
2023-02-09T17:22:17.020Z,9.77
2023-02-09T17:24:43.787Z,9.50
2023-02-09T17:27:11.462Z,13.80
2023-02-09T17:29:38.181Z,12.00
2023-02-09T17:32:05.540Z,12.67
2023-02-09T17:34:32.397Z,10.30
2023-02-09T17:36:59.571Z,10.23
2023-02-09T17:39:26.283Z,10.70
2023-02-09T17:41:53.109Z,10.40
2023-02-09T17:44:43.678Z,11.47
2023-02-09T17:47:16.749Z,11.77
2023-02-09T17:49:43.770Z,10.20
2023-02-09T17:52:18.087Z,11.70
2023-02-09T17:54:45.738Z,12.07
2023-02-09T17:57:16.934Z,11.40
2023-02-09T17:59:43.825Z,10.80
2023-02-09T18:02:16.307Z,11.80
2023-02-09T18:04:43.452Z,11.13
2023-02-09T18:07:10.958Z,11.30
2023-02-09T18:09:37.880Z,11.43
2023-02-09T18:12:12.902Z,11.93
2023-02-09T18:14:39.807Z,11.63
2023-02-09T18:17:06.555Z,11.37
2023-02-09T18:19:33.342Z,10.50
2023-02-09T18:22:02.185Z,11.40
2023-02-09T18:24:34.698Z,11.03
2023-02-09T18:27:01.598Z,10.60
2023-02-09T18:29:31.711Z,12.10
2023-02-09T18:32:00.264Z,10.27
2023-02-09T18:34:27.740Z,11.20
2023-02-09T18:36:54.536Z,11.30
2023-02-09T18:39:21.403Z,10.80
2023-02-09T18:41:54.313Z,10.90
2023-02-09T18:44:29.847Z,12.03
2023-02-09T18:46:57.996Z,11.97
2023-02-09T18:49:24.823Z,11.40
2023-02-09T18:51:52.359Z,10.93
2023-02-09T18:54:19.443Z,12.20
2023-02-09T18:56:46.302Z,12.50
2023-02-09T18:59:13.265Z,12.90
2023-02-09T19:01:40.912Z,12.13
2023-02-09T19:04:08.267Z,12.97
2023-02-09T19:06:35.511Z,13.10
2023-02-09T19:09:02.420Z,14.23
2023-02-09T19:11:29.173Z,12.87
2023-02-09T19:14:14.599Z,13.17
2023-02-09T19:16:41.495Z,12.67
2023-02-09T19:19:09.627Z,13.53
2023-02-09T19:21:36.532Z,13.00
2023-02-09T19:24:04.803Z,12.50
2023-02-09T19:26:31.538Z,13.20
2023-02-09T19:28:58.251Z,14.80
2023-02-09T19:31:25.364Z,14.47
2023-02-09T19:33:56.655Z,13.53
2023-02-09T19:36:24.399Z,12.83
2023-02-09T19:38:51.281Z,13.40
2023-02-09T19:41:18.305Z,13.33
2023-02-09T19:43:44.992Z,15.63
2023-02-09T19:46:12.001Z,14.23
2023-02-09T19:48:41.933Z,14.70
2023-02-09T19:51:09.026Z,15.80
2023-02-09T19:53:38.284Z,14.50
2023-02-09T19:56:05.395Z,15.50
2023-02-09T19:58:32.192Z,15.20
2023-02-09T20:00:59.064Z,14.43
2023-02-09T20:03:25.945Z,15.87
2023-02-09T20:05:52.774Z,14.90
2023-02-09T20:08:19.942Z,15.10
2023-02-09T20:10:47.138Z,14.67
2023-02-09T20:13:15.126Z,15.97
2023-02-09T20:15:43.806Z,15.60
2023-02-09T20:18:12.643Z,15.80
2023-02-09T20:20:41.948Z,14.60
2023-02-09T20:23:09.501Z,15.50
2023-02-09T20:25:36.332Z,15.73
2023-02-09T20:28:03.256Z,16.33
2023-02-09T20:30:30.003Z,15.90
2023-02-09T20:32:56.774Z,16.60
2023-02-09T20:35:23.617Z,16.70
2023-02-09T20:37:52.798Z,17.00
2023-02-09T20:40:19.969Z,16.20
2023-02-09T20:43:05.385Z,17.33
2023-02-09T20:45:50.592Z,16.20
2023-02-09T20:48:17.561Z,16.80
2023-02-09T20:50:45.433Z,16.90
2023-02-09T20:53:12.756Z,16.70
2023-02-09T20:55:39.597Z,16.63
2023-02-09T20:58:06.518Z,16.13
2023-02-09T21:00:33.349Z,18.37
2023-02-09T21:03:01.191Z,18.60
2023-02-09T21:05:28.238Z,18.10
2023-02-09T21:07:55.520Z,19.60
2023-02-09T21:10:23.035Z,20.13
2023-02-09T21:12:49.875Z,18.70
2023-02-09T21:15:16.831Z,21.27
2023-02-09T21:17:51.513Z,20.20
2023-02-09T21:20:18.304Z,22.20
2023-02-09T21:22:44.984Z,20.60
2023-02-09T21:25:11.909Z,22.00
2023-02-09T21:27:39.130Z,21.83
2023-02-09T21:30:06.494Z,22.33
2023-02-09T21:32:35.158Z,22.23
2023-02-09T21:35:02.129Z,22.30
2023-02-09T21:37:32.327Z,22.80
2023-02-09T21:40:03.060Z,22.70
2023-02-09T21:42:31.429Z,23.33
2023-02-09T21:44:59.746Z,25.00
2023-02-09T21:47:29.107Z,23.67
2023-02-09T21:49:56.363Z,23.67
2023-02-09T21:52:23.675Z,24.07
2023-02-09T21:54:50.737Z,23.47
2023-02-09T21:57:17.710Z,24.27
2023-02-09T21:59:44.558Z,22.73
2023-02-09T22:02:18.938Z,24.47
2023-02-09T22:04:46.941Z,26.30
2023-02-09T22:07:15.464Z,27.60
2023-02-09T22:09:42.222Z,24.37
2023-02-09T22:12:09.429Z,22.73
2023-02-09T22:14:36.183Z,25.60
2023-02-09T22:17:03.550Z,23.80
2023-02-09T22:19:30.398Z,23.57
2023-02-09T22:21:58.001Z,22.63
2023-02-09T22:24:25.848Z,22.70
2023-02-09T22:26:52.798Z,23.97
2023-02-09T22:29:20.252Z,22.70
2023-02-09T22:31:47.580Z,24.43
2023-02-09T22:34:14.492Z,21.93
2023-02-09T22:36:41.341Z,25.03
2023-02-09T22:39:08.542Z,23.10
2023-02-09T22:41:35.519Z,23.57
2023-02-09T22:44:08.041Z,23.47
2023-02-09T22:46:37.313Z,24.83
2023-02-09T22:49:07.741Z,22.67
2023-02-09T22:51:35.951Z,23.70
2023-02-09T22:54:04.713Z,23.27
2023-02-09T22:56:31.855Z,23.00
2023-02-09T22:59:00.094Z,24.80
2023-02-09T23:01:28.099Z,23.27
2023-02-09T23:03:55.316Z,22.27
2023-02-09T23:06:24.737Z,31.07
2023-02-09T23:08:57.081Z,27.83
2023-02-09T23:11:24.438Z,28.20
2023-02-09T23:14:07.067Z,30.23
2023-02-09T23:16:36.545Z,24.50
2023-02-09T23:19:06.690Z,23.80
2023-02-09T23:21:36.712Z,22.77
2023-02-09T23:24:04.871Z,25.83
2023-02-09T23:26:31.949Z,24.37
2023-02-09T23:29:00.498Z,24.10
2023-02-09T23:31:27.883Z,23.60
2023-02-09T23:33:55.389Z,27.20
2023-02-09T23:36:25.022Z,25.03
2023-02-09T23:38:54.309Z,24.40
2023-02-09T23:41:21.405Z,22.80
2023-02-09T23:43:48.514Z,24.00
2023-02-09T23:46:18.200Z,24.20
2023-02-09T23:48:45.370Z,29.30
2023-02-09T23:51:18.289Z,26.00
2023-02-09T23:53:46.283Z,28.60
2023-02-09T23:56:14.448Z,25.33
2023-02-09T23:58:43.438Z,25.03
